sensor_id;sensor_type;location;lat;lon;timestamp;pressure;altitude;pressure_sealevel;temperature;humidity
59315;BME280;46521;50.160;20.802;2022-07-06T02:20:05;99584.34;;;17.50;74.81
59315;BME280;46521;50.160;20.802;2022-07-06T02:30:17;99595.84;;;17.50;74.36
59315;BME280;46521;50.160;20.802;2022-07-06T02:41:23;99609.16;;;17.57;74.62
59315;BME280;46521;50.160;20.802;2022-07-06T03:15:33;99627.14;;;16.98;75.40
59315;BME280;46521;50.160;20.802;2022-07-06T03:26:48;99647.09;;;16.88;75.26
59315;BME280;46521;50.160;20.802;2022-07-06T03:38:17;99664.75;;;16.96;75.31
59315;BME280;46521;50.160;20.802;2022-07-06T03:49:45;99675.22;;;16.91;75.46
59315;BME280;46521;50.160;20.802;2022-07-06T04:12:52;99674.93;;;17.26;75.44
59315;BME280;46521;50.160;20.802;2022-07-06T04:24:17;99675.91;;;17.38;75.13
59315;BME280;46521;50.160;20.802;2022-07-06T04:35:42;99677.33;;;17.41;75.18
59315;BME280;46521;50.160;20.802;2022-07-06T04:58:52;99699.77;;;17.33;75.55
59315;BME280;46521;50.160;20.802;2022-07-06T05:09:55;99708.98;;;17.44;75.39
59315;BME280;46521;50.160;20.802;2022-07-06T05:21:39;99732.80;;;17.59;75.21
59315;BME280;46521;50.160;20.802;2022-07-06T05:44:15;99744.66;;;17.76;75.28
59315;BME280;46521;50.160;20.802;2022-07-06T05:54:16;99755.94;;;17.92;75.58
59315;BME280;46521;50.160;20.802;2022-07-06T06:04:19;99757.23;;;18.14;75.07
59315;BME280;46521;50.160;20.802;2022-07-06T06:14:38;99756.98;;;18.54;74.48
59315;BME280;46521;50.160;20.802;2022-07-06T06:25:52;99754.63;;;18.90;73.91
59315;BME280;46521;50.160;20.802;2022-07-06T06:37:11;99733.84;;;20.27;72.92
59315;BME280;46521;50.160;20.802;2022-07-06T06:47:52;99723.95;;;20.51;71.31
59315;BME280;46521;50.160;20.802;2022-07-06T06:57:53;99705.50;;;21.26;70.77
59315;BME280;46521;50.160;20.802;2022-07-06T07:07:55;99754.02;;;21.19;70.16
59315;BME280;46521;50.160;20.802;2022-07-06T07:17:59;99762.41;;;21.58;68.96
59315;BME280;46521;50.160;20.802;2022-07-06T07:28:02;99777.44;;;21.06;68.73
59315;BME280;46521;50.160;20.802;2022-07-06T07:38:26;99774.63;;;20.90;68.07
59315;BME280;46521;50.160;20.802;2022-07-06T07:48:27;99795.29;;;20.89;68.24
59315;BME280;46521;50.160;20.802;2022-07-06T07:58:29;99807.95;;;21.00;67.16
59315;BME280;46521;50.160;20.802;2022-07-06T08:08:31;99822.52;;;20.81;67.34
59315;BME280;46521;50.160;20.802;2022-07-06T08:18:34;99827.92;;;21.28;66.85
59315;BME280;46521;50.160;20.802;2022-07-06T08:28:35;99836.34;;;21.67;66.48
59315;BME280;46521;50.160;20.802;2022-07-06T08:38:38;99820.00;;;22.38;65.62
59315;BME280;46521;50.160;20.802;2022-07-06T08:48:46;99815.44;;;23.41;64.31
59315;BME280;46521;50.160;20.802;2022-07-06T08:58:50;99826.76;;;23.82;62.77
59315;BME280;46521;50.160;20.802;2022-07-06T09:08:56;99825.42;;;24.28;61.74
59315;BME280;46521;50.160;20.802;2022-07-06T09:18:59;99814.59;;;24.56;61.06
59315;BME280;46521;50.160;20.802;2022-07-06T09:29:01;99818.72;;;24.91;59.20
59315;BME280;46521;50.160;20.802;2022-07-06T09:39:27;99804.57;;;25.21;58.76
59315;BME280;46521;50.160;20.802;2022-07-06T09:49:29;99801.34;;;25.24;57.85
59315;BME280;46521;50.160;20.802;2022-07-06T09:59:32;99785.91;;;25.78;57.27
59315;BME280;46521;50.160;20.802;2022-07-06T10:09:34;99792.00;;;26.16;54.88
59315;BME280;46521;50.160;20.802;2022-07-06T10:19:35;99787.95;;;26.13;54.89
59315;BME280;46521;50.160;20.802;2022-07-06T10:29:38;99784.31;;;25.82;54.42
59315;BME280;46521;50.160;20.802;2022-07-06T10:39:39;99783.14;;;25.62;53.41
59315;BME280;46521;50.160;20.802;2022-07-06T10:50:14;99785.81;;;24.72;53.30
59315;BME280;46521;50.160;20.802;2022-07-06T11:00:54;99789.41;;;23.51;53.25
59315;BME280;46521;50.160;20.802;2022-07-06T11:10:56;99787.67;;;23.23;53.46
59315;BME280;46521;50.160;20.802;2022-07-06T11:21:20;99799.11;;;23.13;53.66
59315;BME280;46521;50.160;20.802;2022-07-06T11:31:22;99803.55;;;22.85;54.39
59315;BME280;46521;50.160;20.802;2022-07-06T11:41:24;99814.31;;;22.68;53.53
59315;BME280;46521;50.160;20.802;2022-07-06T11:51:28;99839.17;;;21.49;55.93
59315;BME280;46521;50.160;20.802;2022-07-06T12:01:30;99844.91;;;21.29;56.97
59315;BME280;46521;50.160;20.802;2022-07-06T12:11:36;99835.77;;;21.41;57.33
59315;BME280;46521;50.160;20.802;2022-07-06T12:21:49;99835.73;;;21.77;57.92
59315;BME280;46521;50.160;20.802;2022-07-06T12:31:56;99825.73;;;22.01;57.46
59315;BME280;46521;50.160;20.802;2022-07-06T12:42:02;99827.33;;;22.14;56.84
59315;BME280;46521;50.160;20.802;2022-07-06T13:02:16;99811.77;;;22.45;56.11
59315;BME280;46521;50.160;20.802;2022-07-06T13:12:19;99804.94;;;22.71;55.35
59315;BME280;46521;50.160;20.802;2022-07-06T13:22:21;99830.17;;;22.65;55.51
59315;BME280;46521;50.160;20.802;2022-07-06T13:32:22;99861.95;;;22.34;54.72
59315;BME280;46521;50.160;20.802;2022-07-06T13:42:24;99870.86;;;21.70;54.96
59315;BME280;46521;50.160;20.802;2022-07-06T13:52:25;99887.05;;;20.62;56.20
59315;BME280;46521;50.160;20.802;2022-07-06T14:02:32;99892.22;;;19.96;57.95
59315;BME280;46521;50.160;20.802;2022-07-06T14:13:18;99890.86;;;19.69;59.19
59315;BME280;46521;50.160;20.802;2022-07-06T14:23:21;99899.50;;;19.71;60.61
59315;BME280;46521;50.160;20.802;2022-07-06T14:33:23;99894.63;;;20.05;60.77
59315;BME280;46521;50.160;20.802;2022-07-06T14:43:24;99888.64;;;20.21;60.46
59315;BME280;46521;50.160;20.802;2022-07-06T14:53:26;99886.96;;;20.39;60.78
59315;BME280;46521;50.160;20.802;2022-07-06T15:03:27;99881.27;;;20.47;59.26
59315;BME280;46521;50.160;20.802;2022-07-06T15:13:29;99865.02;;;20.42;59.42
59315;BME280;46521;50.160;20.802;2022-07-06T15:34:16;99853.20;;;21.27;58.84
59315;BME280;46521;50.160;20.802;2022-07-06T15:44:21;99835.20;;;21.39;58.50
59315;BME280;46521;50.160;20.802;2022-07-06T15:54:23;99828.17;;;21.38;57.87
59315;BME280;46521;50.160;20.802;2022-07-06T16:04:24;99814.14;;;21.60;57.66
59315;BME280;46521;50.160;20.802;2022-07-06T16:14:27;99824.30;;;21.46;57.17
59315;BME280;46521;50.160;20.802;2022-07-06T16:24:29;99834.95;;;21.05;57.43
59315;BME280;46521;50.160;20.802;2022-07-06T16:34:30;99859.91;;;20.70;57.41
59315;BME280;46521;50.160;20.802;2022-07-06T16:44:32;99848.36;;;20.82;57.39
59315;BME280;46521;50.160;20.802;2022-07-06T16:54:33;99851.63;;;20.84;56.74
59315;BME280;46521;50.160;20.802;2022-07-06T17:04:34;99847.20;;;20.90;56.67
59315;BME280;46521;50.160;20.802;2022-07-06T17:14:36;99852.42;;;20.73;56.97
59315;BME280;46521;50.160;20.802;2022-07-06T17:24:37;99859.70;;;20.53;57.89
59315;BME280;46521;50.160;20.802;2022-07-06T17:34:39;99854.41;;;20.47;57.28
59315;BME280;46521;50.160;20.802;2022-07-06T17:44:42;99860.78;;;20.34;56.98
59315;BME280;46521;50.160;20.802;2022-07-06T17:54:44;99868.64;;;20.17;57.14
59315;BME280;46521;50.160;20.802;2022-07-06T18:04:46;99867.48;;;19.94;56.21
59315;BME280;46521;50.160;20.802;2022-07-06T18:14:48;99890.38;;;19.78;55.92
59315;BME280;46521;50.160;20.802;2022-07-06T18:24:49;99895.46;;;19.61;56.00
59315;BME280;46521;50.160;20.802;2022-07-06T18:34:52;99883.95;;;19.36;56.07
59315;BME280;46521;50.160;20.802;2022-07-06T18:44:54;99888.59;;;18.97;56.97
59315;BME280;46521;50.160;20.802;2022-07-06T18:54:55;99893.84;;;18.78;57.17
59315;BME280;46521;50.160;20.802;2022-07-06T19:04:57;99910.06;;;18.51;57.95
59315;BME280;46521;50.160;20.802;2022-07-06T19:14:58;99916.18;;;18.20;58.35
59315;BME280;46521;50.160;20.802;2022-07-06T19:25:00;99931.48;;;17.93;58.52
59315;BME280;46521;50.160;20.802;2022-07-06T19:35:01;99944.02;;;17.79;59.01
59315;BME280;46521;50.160;20.802;2022-07-06T19:45:03;99937.48;;;17.68;59.73
59315;BME280;46521;50.160;20.802;2022-07-06T19:55:06;99935.41;;;17.57;59.90
59315;BME280;46521;50.160;20.802;2022-07-06T20:05:08;99938.52;;;17.40;60.01
59315;BME280;46521;50.160;20.802;2022-07-06T20:15:10;99964.18;;;17.15;60.71
59315;BME280;46521;50.160;20.802;2022-07-06T20:25:11;99956.59;;;17.11;60.93
59315;BME280;46521;50.160;20.802;2022-07-06T20:35:13;99960.08;;;17.05;61.27
59315;BME280;46521;50.160;20.802;2022-07-06T20:45:15;99957.38;;;16.99;61.19
59315;BME280;46521;50.160;20.802;2022-07-06T20:55:16;99968.86;;;16.86;61.36
59315;BME280;46521;50.160;20.802;2022-07-06T21:05:20;99964.80;;;16.48;61.83
59315;BME280;46521;50.160;20.802;2022-07-06T21:15:22;99960.45;;;16.40;62.38
59315;BME280;46521;50.160;20.802;2022-07-06T21:25:24;99963.41;;;16.17;62.42
59315;BME280;46521;50.160;20.802;2022-07-06T21:35:25;99959.22;;;16.01;62.87
59315;BME280;46521;50.160;20.802;2022-07-06T21:45:27;99961.04;;;15.94;63.18
59315;BME280;46521;50.160;20.802;2022-07-06T21:55:28;99964.33;;;15.96;63.64
59315;BME280;46521;50.160;20.802;2022-07-06T22:05:30;99965.27;;;15.82;63.36
59315;BME280;46521;50.160;20.802;2022-07-06T22:15:31;99951.94;;;15.60;64.07
59315;BME280;46521;50.160;20.802;2022-07-06T22:25:32;99958.67;;;15.56;64.48
59315;BME280;46521;50.160;20.802;2022-07-06T22:35:45;99952.48;;;15.49;64.60
59315;BME280;46521;50.160;20.802;2022-07-06T22:46:53;99958.91;;;15.33;64.96
59315;BME280;46521;50.160;20.802;2022-07-06T22:57:41;99967.72;;;15.12;65.70
